sensor_id;sensor_type;location;lat;lon;timestamp;temperature;humidity
27534;DHT22;14973;51.460;7.008;2023-06-22T00:01:17;21.70;1.00
27534;DHT22;14973;51.460;7.008;2023-06-22T00:03:43;21.70;1.00
27534;DHT22;14973;51.460;7.008;2023-06-22T00:06:08;21.60;1.00
27534;DHT22;14973;51.460;7.008;2023-06-22T00:08:34;21.60;1.00
27534;DHT22;14973;51.460;7.008;2023-06-22T00:10:59;21.60;1.00
27534;DHT22;14973;51.460;7.008;2023-06-22T00:13:25;21.60;1.00
27534;DHT22;14973;51.460;7.008;2023-06-22T00:15:50;21.50;1.00
27534;DHT22;14973;51.460;7.008;2023-06-22T00:18:15;21.50;1.00
27534;DHT22;14973;51.460;7.008;2023-06-22T00:20:41;21.50;4.10
27534;DHT22;14973;51.460;7.008;2023-06-22T00:23:07;21.40;12.80
27534;DHT22;14973;51.460;7.008;2023-06-22T00:25:34;21.40;61.40
27534;DHT22;14973;51.460;7.008;2023-06-22T00:28:00;21.40;96.70
27534;DHT22;14973;51.460;7.008;2023-06-22T00:30:25;21.50;99.90
27534;DHT22;14973;51.460;7.008;2023-06-22T00:32:50;21.40;99.90
27534;DHT22;14973;51.460;7.008;2023-06-22T00:35:16;21.40;99.90
27534;DHT22;14973;51.460;7.008;2023-06-22T00:37:41;21.30;99.90
27534;DHT22;14973;51.460;7.008;2023-06-22T00:40:10;21.40;99.90
27534;DHT22;14973;51.460;7.008;2023-06-22T00:42:40;21.40;99.90
27534;DHT22;14973;51.460;7.008;2023-06-22T00:45:06;21.40;99.90
27534;DHT22;14973;51.460;7.008;2023-06-22T00:47:32;21.40;99.90
27534;DHT22;14973;51.460;7.008;2023-06-22T00:49:57;21.40;99.90
27534;DHT22;14973;51.460;7.008;2023-06-22T00:52:23;21.30;99.90
27534;DHT22;14973;51.460;7.008;2023-06-22T00:54:52;21.30;99.90
27534;DHT22;14973;51.460;7.008;2023-06-22T00:57:18;21.20;99.90
27534;DHT22;14973;51.460;7.008;2023-06-22T00:59:45;21.20;1.00
27534;DHT22;14973;51.460;7.008;2023-06-22T01:02:11;21.20;1.00
27534;DHT22;14973;51.460;7.008;2023-06-22T01:04:37;21.20;1.00
27534;DHT22;14973;51.460;7.008;2023-06-22T01:07:10;21.20;1.00
27534;DHT22;14973;51.460;7.008;2023-06-22T01:09:43;21.10;47.20
27534;DHT22;14973;51.460;7.008;2023-06-22T01:12:10;21.10;99.90
27534;DHT22;14973;51.460;7.008;2023-06-22T01:14:43;21.10;99.90
27534;DHT22;14973;51.460;7.008;2023-06-22T01:17:10;21.00;99.90
27534;DHT22;14973;51.460;7.008;2023-06-22T01:22:07;20.90;1.00
27534;DHT22;14973;51.460;7.008;2023-06-22T01:30:21;20.80;99.90
27534;DHT22;14973;51.460;7.008;2023-06-22T01:32:48;20.80;99.90
27534;DHT22;14973;51.460;7.008;2023-06-22T01:35:14;20.80;99.90
27534;DHT22;14973;51.460;7.008;2023-06-22T01:37:40;20.90;99.90
27534;DHT22;14973;51.460;7.008;2023-06-22T01:40:06;20.90;99.90
27534;DHT22;14973;51.460;7.008;2023-06-22T01:42:33;20.90;99.90
27534;DHT22;14973;51.460;7.008;2023-06-22T01:44:59;20.90;99.90
27534;DHT22;14973;51.460;7.008;2023-06-22T01:47:25;20.90;1.00
27534;DHT22;14973;51.460;7.008;2023-06-22T01:49:50;20.90;99.90
27534;DHT22;14973;51.460;7.008;2023-06-22T01:52:19;20.90;1.00
27534;DHT22;14973;51.460;7.008;2023-06-22T01:54:46;21.00;1.00
27534;DHT22;14973;51.460;7.008;2023-06-22T01:57:12;21.00;15.30
27534;DHT22;14973;51.460;7.008;2023-06-22T01:59:39;21.00;99.90
27534;DHT22;14973;51.460;7.008;2023-06-22T02:02:09;21.00;99.90
27534;DHT22;14973;51.460;7.008;2023-06-22T02:04:41;21.00;14.40
27534;DHT22;14973;51.460;7.008;2023-06-22T02:07:09;21.00;99.90
27534;DHT22;14973;51.460;7.008;2023-06-22T02:09:37;20.90;1.00
27534;DHT22;14973;51.460;7.008;2023-06-22T02:12:04;20.90;1.00
27534;DHT22;14973;51.460;7.008;2023-06-22T02:14:30;20.90;99.90
27534;DHT22;14973;51.460;7.008;2023-06-22T02:16:56;20.90;1.00
27534;DHT22;14973;51.460;7.008;2023-06-22T02:19:24;20.80;99.90
27534;DHT22;14973;51.460;7.008;2023-06-22T02:21:50;20.80;1.00
27534;DHT22;14973;51.460;7.008;2023-06-22T02:24:15;20.70;1.00
27534;DHT22;14973;51.460;7.008;2023-06-22T02:26:41;20.70;99.90
27534;DHT22;14973;51.460;7.008;2023-06-22T02:29:07;20.80;1.00
27534;DHT22;14973;51.460;7.008;2023-06-22T02:31:33;20.60;1.00
27534;DHT22;14973;51.460;7.008;2023-06-22T02:33:58;20.60;99.90
27534;DHT22;14973;51.460;7.008;2023-06-22T02:36:24;20.60;99.90
27534;DHT22;14973;51.460;7.008;2023-06-22T02:38:52;20.60;99.90
27534;DHT22;14973;51.460;7.008;2023-06-22T02:41:17;20.60;99.90
27534;DHT22;14973;51.460;7.008;2023-06-22T02:43:46;20.50;1.00
27534;DHT22;14973;51.460;7.008;2023-06-22T02:46:11;20.40;1.00
27534;DHT22;14973;51.460;7.008;2023-06-22T02:48:38;20.40;54.00
27534;DHT22;14973;51.460;7.008;2023-06-22T02:51:04;20.40;44.00
27534;DHT22;14973;51.460;7.008;2023-06-22T02:53:29;20.30;99.90
27534;DHT22;14973;51.460;7.008;2023-06-22T02:55:55;20.30;99.90
27534;DHT22;14973;51.460;7.008;2023-06-22T02:58:21;20.30;99.90
27534;DHT22;14973;51.460;7.008;2023-06-22T03:00:46;20.30;99.90
27534;DHT22;14973;51.460;7.008;2023-06-22T03:03:12;20.30;99.90
27534;DHT22;14973;51.460;7.008;2023-06-22T03:05:37;20.30;99.90
27534;DHT22;14973;51.460;7.008;2023-06-22T03:08:03;20.20;99.90
27534;DHT22;14973;51.460;7.008;2023-06-22T03:10:28;20.20;99.90
27534;DHT22;14973;51.460;7.008;2023-06-22T03:12:54;20.10;99.90
27534;DHT22;14973;51.460;7.008;2023-06-22T03:15:19;20.10;99.90
27534;DHT22;14973;51.460;7.008;2023-06-22T03:17:45;20.10;1.00
27534;DHT22;14973;51.460;7.008;2023-06-22T03:20:11;20.10;1.00
27534;DHT22;14973;51.460;7.008;2023-06-22T03:22:37;20.10;1.00
27534;DHT22;14973;51.460;7.008;2023-06-22T03:25:03;20.10;1.00
27534;DHT22;14973;51.460;7.008;2023-06-22T03:27:29;20.00;1.00
27534;DHT22;14973;51.460;7.008;2023-06-22T03:29:56;20.00;1.00
27534;DHT22;14973;51.460;7.008;2023-06-22T03:32:21;19.90;1.00
27534;DHT22;14973;51.460;7.008;2023-06-22T03:34:47;19.90;1.00
27534;DHT22;14973;51.460;7.008;2023-06-22T03:37:15;19.90;1.00
27534;DHT22;14973;51.460;7.008;2023-06-22T03:39:41;19.80;1.00
27534;DHT22;14973;51.460;7.008;2023-06-22T03:42:06;19.80;1.00
27534;DHT22;14973;51.460;7.008;2023-06-22T03:44:32;19.80;1.00
27534;DHT22;14973;51.460;7.008;2023-06-22T03:46:57;19.80;1.00
27534;DHT22;14973;51.460;7.008;2023-06-22T03:49:23;19.90;1.00
27534;DHT22;14973;51.460;7.008;2023-06-22T03:51:48;19.90;1.00
27534;DHT22;14973;51.460;7.008;2023-06-22T03:54:14;20.00;1.00
27534;DHT22;14973;51.460;7.008;2023-06-22T03:56:39;20.00;1.00
27534;DHT22;14973;51.460;7.008;2023-06-22T03:59:05;20.10;1.00
27534;DHT22;14973;51.460;7.008;2023-06-22T04:01:30;20.20;1.00
27534;DHT22;14973;51.460;7.008;2023-06-22T04:03:56;20.30;1.00
27534;DHT22;14973;51.460;7.008;2023-06-22T04:06:21;20.40;99.90
27534;DHT22;14973;51.460;7.008;2023-06-22T04:08:47;20.70;99.90
27534;DHT22;14973;51.460;7.008;2023-06-22T04:11:16;21.00;1.00
27534;DHT22;14973;51.460;7.008;2023-06-22T04:13:42;21.40;99.90
27534;DHT22;14973;51.460;7.008;2023-06-22T04:16:07;21.70;1.00
27534;DHT22;14973;51.460;7.008;2023-06-22T04:18:33;21.70;1.00
27534;DHT22;14973;51.460;7.008;2023-06-22T04:20:58;21.70;1.00
27534;DHT22;14973;51.460;7.008;2023-06-22T04:23:23;21.50;1.00
27534;DHT22;14973;51.460;7.008;2023-06-22T04:25:49;21.30;99.90
27534;DHT22;14973;51.460;7.008;2023-06-22T04:28:15;21.40;99.90
27534;DHT22;14973;51.460;7.008;2023-06-22T04:30:41;21.30;1.00
27534;DHT22;14973;51.460;7.008;2023-06-22T04:33:14;21.20;29.40
27534;DHT22;14973;51.460;7.008;2023-06-22T04:35:40;21.00;1.00
27534;DHT22;14973;51.460;7.008;2023-06-22T04:38:06;21.10;99.90
27534;DHT22;14973;51.460;7.008;2023-06-22T04:40:32;21.00;1.00
27534;DHT22;14973;51.460;7.008;2023-06-22T04:42:58;20.90;1.00
27534;DHT22;14973;51.460;7.008;2023-06-22T04:45:27;21.00;99.90
27534;DHT22;14973;51.460;7.008;2023-06-22T04:47:53;21.00;99.90
27534;DHT22;14973;51.460;7.008;2023-06-22T04:50:18;21.00;99.90
27534;DHT22;14973;51.460;7.008;2023-06-22T04:52:46;21.00;1.00
27534;DHT22;14973;51.460;7.008;2023-06-22T04:55:12;20.90;99.90
27534;DHT22;14973;51.460;7.008;2023-06-22T04:57:37;20.70;99.90
27534;DHT22;14973;51.460;7.008;2023-06-22T05:00:05;20.60;1.00
27534;DHT22;14973;51.460;7.008;2023-06-22T05:02:40;20.60;36.60
27534;DHT22;14973;51.460;7.008;2023-06-22T05:05:06;20.60;99.90
27534;DHT22;14973;51.460;7.008;2023-06-22T05:07:34;20.50;99.90
27534;DHT22;14973;51.460;7.008;2023-06-22T05:10:03;20.50;99.90
27534;DHT22;14973;51.460;7.008;2023-06-22T05:12:29;20.50;99.90
27534;DHT22;14973;51.460;7.008;2023-06-22T05:14:55;20.40;99.90
27534;DHT22;14973;51.460;7.008;2023-06-22T05:17:20;20.30;1.00
27534;DHT22;14973;51.460;7.008;2023-06-22T05:19:46;20.30;1.00
27534;DHT22;14973;51.460;7.008;2023-06-22T05:22:16;20.30;1.00
27534;DHT22;14973;51.460;7.008;2023-06-22T05:24:42;20.30;1.00
27534;DHT22;14973;51.460;7.008;2023-06-22T05:27:08;20.20;1.00
27534;DHT22;14973;51.460;7.008;2023-06-22T05:29:34;20.20;1.00
27534;DHT22;14973;51.460;7.008;2023-06-22T05:32:00;20.10;1.00
27534;DHT22;14973;51.460;7.008;2023-06-22T05:34:26;20.10;1.00
27534;DHT22;14973;51.460;7.008;2023-06-22T05:36:51;20.10;1.00
27534;DHT22;14973;51.460;7.008;2023-06-22T05:39:17;20.10;1.00
27534;DHT22;14973;51.460;7.008;2023-06-22T05:41:42;20.10;1.00
27534;DHT22;14973;51.460;7.008;2023-06-22T05:44:08;20.10;1.00
27534;DHT22;14973;51.460;7.008;2023-06-22T05:46:34;20.20;1.00
27534;DHT22;14973;51.460;7.008;2023-06-22T05:48:59;20.30;1.00
27534;DHT22;14973;51.460;7.008;2023-06-22T05:51:25;20.30;1.00
27534;DHT22;14973;51.460;7.008;2023-06-22T05:53:50;20.40;1.00
27534;DHT22;14973;51.460;7.008;2023-06-22T05:56:16;20.50;1.00
27534;DHT22;14973;51.460;7.008;2023-06-22T05:58:42;20.50;1.00
27534;DHT22;14973;51.460;7.008;2023-06-22T06:01:07;20.50;1.00
27534;DHT22;14973;51.460;7.008;2023-06-22T06:03:33;20.30;1.00
27534;DHT22;14973;51.460;7.008;2023-06-22T06:05:58;20.10;1.00
27534;DHT22;14973;51.460;7.008;2023-06-22T06:08:24;19.90;2.10
27534;DHT22;14973;51.460;7.008;2023-06-22T06:10:50;19.80;16.00
27534;DHT22;14973;51.460;7.008;2023-06-22T06:13:18;19.70;27.50
27534;DHT22;14973;51.460;7.008;2023-06-22T06:15:43;19.80;43.30
27534;DHT22;14973;51.460;7.008;2023-06-22T06:18:09;19.70;47.00
27534;DHT22;14973;51.460;7.008;2023-06-22T06:20:34;19.70;49.30
27534;DHT22;14973;51.460;7.008;2023-06-22T06:23:00;19.60;54.20
27534;DHT22;14973;51.460;7.008;2023-06-22T06:25:27;19.50;58.10
27534;DHT22;14973;51.460;7.008;2023-06-22T06:27:52;19.40;63.90
27534;DHT22;14973;51.460;7.008;2023-06-22T06:30:19;19.40;72.50
27534;DHT22;14973;51.460;7.008;2023-06-22T06:32:45;19.30;74.00
27534;DHT22;14973;51.460;7.008;2023-06-22T06:35:11;19.40;77.00
27534;DHT22;14973;51.460;7.008;2023-06-22T06:37:39;19.40;83.50
27534;DHT22;14973;51.460;7.008;2023-06-22T06:40:06;19.50;86.00
27534;DHT22;14973;51.460;7.008;2023-06-22T06:42:35;19.50;84.20
27534;DHT22;14973;51.460;7.008;2023-06-22T06:45:03;19.60;86.90
27534;DHT22;14973;51.460;7.008;2023-06-22T06:47:29;19.60;67.60
27534;DHT22;14973;51.460;7.008;2023-06-22T06:49:54;19.70;60.80
27534;DHT22;14973;51.460;7.008;2023-06-22T06:52:20;19.80;56.70
27534;DHT22;14973;51.460;7.008;2023-06-22T06:54:46;19.80;56.60
27534;DHT22;14973;51.460;7.008;2023-06-22T06:57:11;20.00;46.00
27534;DHT22;14973;51.460;7.008;2023-06-22T06:59:38;20.00;35.20
27534;DHT22;14973;51.460;7.008;2023-06-22T07:02:04;20.20;23.90
27534;DHT22;14973;51.460;7.008;2023-06-22T07:04:30;20.20;17.90
27534;DHT22;14973;51.460;7.008;2023-06-22T07:06:55;20.30;11.70
27534;DHT22;14973;51.460;7.008;2023-06-22T07:09:21;20.40;3.20
27534;DHT22;14973;51.460;7.008;2023-06-22T07:11:46;20.50;1.00
27534;DHT22;14973;51.460;7.008;2023-06-22T07:14:11;20.50;1.00
27534;DHT22;14973;51.460;7.008;2023-06-22T07:16:37;20.80;1.00
27534;DHT22;14973;51.460;7.008;2023-06-22T07:19:02;20.90;1.00
27534;DHT22;14973;51.460;7.008;2023-06-22T07:21:28;21.00;1.00
27534;DHT22;14973;51.460;7.008;2023-06-22T07:23:53;21.10;1.00
27534;DHT22;14973;51.460;7.008;2023-06-22T07:26:20;21.10;1.00
27534;DHT22;14973;51.460;7.008;2023-06-22T07:28:45;21.10;1.00
27534;DHT22;14973;51.460;7.008;2023-06-22T07:31:11;21.20;1.00
27534;DHT22;14973;51.460;7.008;2023-06-22T07:33:36;21.30;1.00
27534;DHT22;14973;51.460;7.008;2023-06-22T07:36:02;21.60;1.00
27534;DHT22;14973;51.460;7.008;2023-06-22T07:38:32;21.60;1.00
27534;DHT22;14973;51.460;7.008;2023-06-22T07:40:58;21.70;1.00
27534;DHT22;14973;51.460;7.008;2023-06-22T07:43:23;21.80;1.00
27534;DHT22;14973;51.460;7.008;2023-06-22T07:45:49;21.90;99.90
27534;DHT22;14973;51.460;7.008;2023-06-22T07:48:21;21.70;99.90
27534;DHT22;14973;51.460;7.008;2023-06-22T07:50:47;21.60;1.00
27534;DHT22;14973;51.460;7.008;2023-06-22T07:53:13;21.70;1.00
27534;DHT22;14973;51.460;7.008;2023-06-22T07:55:38;21.80;99.90
27534;DHT22;14973;51.460;7.008;2023-06-22T07:58:04;22.00;99.90
27534;DHT22;14973;51.460;7.008;2023-06-22T08:00:29;22.10;99.90
27534;DHT22;14973;51.460;7.008;2023-06-22T08:02:54;21.80;99.90
27534;DHT22;14973;51.460;7.008;2023-06-22T08:05:20;21.60;1.00
27534;DHT22;14973;51.460;7.008;2023-06-22T08:07:46;21.30;1.00
27534;DHT22;14973;51.460;7.008;2023-06-22T08:10:11;21.20;1.00
27534;DHT22;14973;51.460;7.008;2023-06-22T08:12:38;21.10;13.50
27534;DHT22;14973;51.460;7.008;2023-06-22T08:15:04;20.80;9.10
27534;DHT22;14973;51.460;7.008;2023-06-22T08:17:30;20.80;3.00
27534;DHT22;14973;51.460;7.008;2023-06-22T08:19:56;20.70;19.20
27534;DHT22;14973;51.460;7.008;2023-06-22T08:22:22;20.60;24.20
27534;DHT22;14973;51.460;7.008;2023-06-22T08:24:47;20.60;14.00
27534;DHT22;14973;51.460;7.008;2023-06-22T08:27:13;20.70;13.80
27534;DHT22;14973;51.460;7.008;2023-06-22T08:29:40;20.80;16.50
27534;DHT22;14973;51.460;7.008;2023-06-22T08:32:10;20.80;20.40
27534;DHT22;14973;51.460;7.008;2023-06-22T08:34:36;21.10;5.60
27534;DHT22;14973;51.460;7.008;2023-06-22T08:37:01;21.50;1.00
27534;DHT22;14973;51.460;7.008;2023-06-22T08:39:31;21.90;1.00
27534;DHT22;14973;51.460;7.008;2023-06-22T08:41:57;22.10;1.00
27534;DHT22;14973;51.460;7.008;2023-06-22T08:44:22;22.50;1.00
27534;DHT22;14973;51.460;7.008;2023-06-22T08:46:48;22.60;99.90
27534;DHT22;14973;51.460;7.008;2023-06-22T08:49:13;22.90;99.90
27534;DHT22;14973;51.460;7.008;2023-06-22T08:51:39;22.80;99.90
27534;DHT22;14973;51.460;7.008;2023-06-22T08:54:04;22.80;1.00
27534;DHT22;14973;51.460;7.008;2023-06-22T08:56:30;22.70;99.90
27534;DHT22;14973;51.460;7.008;2023-06-22T08:58:55;22.70;99.90
27534;DHT22;14973;51.460;7.008;2023-06-22T09:01:21;22.70;99.90
27534;DHT22;14973;51.460;7.008;2023-06-22T09:03:47;22.60;99.90
27534;DHT22;14973;51.460;7.008;2023-06-22T09:06:21;22.70;99.90
27534;DHT22;14973;51.460;7.008;2023-06-22T09:08:47;22.70;76.70
27534;DHT22;14973;51.460;7.008;2023-06-22T09:11:12;22.50;19.40
27534;DHT22;14973;51.460;7.008;2023-06-22T09:13:38;22.60;1.00
27534;DHT22;14973;51.460;7.008;2023-06-22T09:16:03;22.40;99.90
27534;DHT22;14973;51.460;7.008;2023-06-22T09:18:29;22.50;1.00
27534;DHT22;14973;51.460;7.008;2023-06-22T09:20:54;22.50;94.40
27534;DHT22;14973;51.460;7.008;2023-06-22T09:23:20;22.60;1.00
27534;DHT22;14973;51.460;7.008;2023-06-22T09:25:45;22.70;1.00
27534;DHT22;14973;51.460;7.008;2023-06-22T09:28:13;23.00;1.00
27534;DHT22;14973;51.460;7.008;2023-06-22T09:30:38;23.10;1.00
27534;DHT22;14973;51.460;7.008;2023-06-22T09:33:04;23.60;99.90
27534;DHT22;14973;51.460;7.008;2023-06-22T09:35:29;24.20;99.90
27534;DHT22;14973;51.460;7.008;2023-06-22T09:37:55;25.20;1.00
27534;DHT22;14973;51.460;7.008;2023-06-22T09:40:20;26.10;99.90
27534;DHT22;14973;51.460;7.008;2023-06-22T09:42:46;27.10;1.00
27534;DHT22;14973;51.460;7.008;2023-06-22T09:45:11;28.10;99.90
27534;DHT22;14973;51.460;7.008;2023-06-22T09:47:36;28.00;99.90
27534;DHT22;14973;51.460;7.008;2023-06-22T09:50:02;28.20;99.90
27534;DHT22;14973;51.460;7.008;2023-06-22T09:52:28;28.10;99.90
27534;DHT22;14973;51.460;7.008;2023-06-22T09:54:53;27.80;99.90
27534;DHT22;14973;51.460;7.008;2023-06-22T09:57:19;27.20;99.90
27534;DHT22;14973;51.460;7.008;2023-06-22T09:59:44;26.50;99.90
27534;DHT22;14973;51.460;7.008;2023-06-22T10:02:10;25.90;1.00
27534;DHT22;14973;51.460;7.008;2023-06-22T10:04:35;26.20;1.00
27534;DHT22;14973;51.460;7.008;2023-06-22T10:07:01;26.90;1.00
27534;DHT22;14973;51.460;7.008;2023-06-22T10:09:27;27.60;99.90
27534;DHT22;14973;51.460;7.008;2023-06-22T10:11:52;27.80;99.90
27534;DHT22;14973;51.460;7.008;2023-06-22T10:14:18;28.10;99.90
27534;DHT22;14973;51.460;7.008;2023-06-22T10:16:43;28.00;99.90
27534;DHT22;14973;51.460;7.008;2023-06-22T10:19:09;28.20;99.90
27534;DHT22;14973;51.460;7.008;2023-06-22T10:21:34;28.50;99.90
27534;DHT22;14973;51.460;7.008;2023-06-22T10:24:00;28.70;99.90
27534;DHT22;14973;51.460;7.008;2023-06-22T10:26:34;29.30;99.90
27534;DHT22;14973;51.460;7.008;2023-06-22T10:29:00;29.20;99.90
27534;DHT22;14973;51.460;7.008;2023-06-22T10:31:26;29.50;99.90
27534;DHT22;14973;51.460;7.008;2023-06-22T10:33:52;29.20;99.90
27534;DHT22;14973;51.460;7.008;2023-06-22T10:36:18;29.10;99.90
27534;DHT22;14973;51.460;7.008;2023-06-22T10:38:44;29.40;99.90
27534;DHT22;14973;51.460;7.008;2023-06-22T10:41:10;29.40;99.90
27534;DHT22;14973;51.460;7.008;2023-06-22T10:43:36;29.30;99.90
27534;DHT22;14973;51.460;7.008;2023-06-22T10:46:01;29.20;99.90
27534;DHT22;14973;51.460;7.008;2023-06-22T10:48:27;29.20;99.90
27534;DHT22;14973;51.460;7.008;2023-06-22T10:50:52;29.10;99.90
27534;DHT22;14973;51.460;7.008;2023-06-22T10:53:18;29.00;99.90
27534;DHT22;14973;51.460;7.008;2023-06-22T10:55:44;28.60;99.90
27534;DHT22;14973;51.460;7.008;2023-06-22T10:58:09;28.50;99.90
27534;DHT22;14973;51.460;7.008;2023-06-22T11:00:35;28.20;99.90
27534;DHT22;14973;51.460;7.008;2023-06-22T11:03:00;28.00;99.90
27534;DHT22;14973;51.460;7.008;2023-06-22T11:05:26;27.70;99.90
27534;DHT22;14973;51.460;7.008;2023-06-22T11:07:51;27.60;99.90
27534;DHT22;14973;51.460;7.008;2023-06-22T11:10:18;27.40;99.90
27534;DHT22;14973;51.460;7.008;2023-06-22T11:12:44;27.40;99.90
27534;DHT22;14973;51.460;7.008;2023-06-22T11:15:09;27.10;99.90
27534;DHT22;14973;51.460;7.008;2023-06-22T11:17:35;26.60;99.90
27534;DHT22;14973;51.460;7.008;2023-06-22T11:20:01;25.70;99.90
27534;DHT22;14973;51.460;7.008;2023-06-22T11:22:26;24.90;99.90
27534;DHT22;14973;51.460;7.008;2023-06-22T11:24:51;24.20;1.00
27534;DHT22;14973;51.460;7.008;2023-06-22T11:27:17;23.60;1.00
27534;DHT22;14973;51.460;7.008;2023-06-22T11:29:42;23.20;1.00
27534;DHT22;14973;51.460;7.008;2023-06-22T11:32:08;23.00;35.10
27534;DHT22;14973;51.460;7.008;2023-06-22T11:34:34;22.80;31.50
27534;DHT22;14973;51.460;7.008;2023-06-22T11:36:59;22.70;55.20
27534;DHT22;14973;51.460;7.008;2023-06-22T11:39:25;22.60;91.70
27534;DHT22;14973;51.460;7.008;2023-06-22T11:41:50;22.50;54.60
27534;DHT22;14973;51.460;7.008;2023-06-22T11:44:16;22.40;77.30
27534;DHT22;14973;51.460;7.008;2023-06-22T11:46:41;22.30;99.40
27534;DHT22;14973;51.460;7.008;2023-06-22T11:49:07;22.20;99.90
27534;DHT22;14973;51.460;7.008;2023-06-22T11:51:33;22.20;99.90
27534;DHT22;14973;51.460;7.008;2023-06-22T11:53:58;22.20;99.90
27534;DHT22;14973;51.460;7.008;2023-06-22T11:56:24;22.00;99.90
27534;DHT22;14973;51.460;7.008;2023-06-22T11:58:49;22.00;99.90
27534;DHT22;14973;51.460;7.008;2023-06-22T12:01:15;21.90;99.90
27534;DHT22;14973;51.460;7.008;2023-06-22T12:03:41;21.70;99.90
27534;DHT22;14973;51.460;7.008;2023-06-22T12:06:06;21.70;99.90
27534;DHT22;14973;51.460;7.008;2023-06-22T12:08:31;21.60;99.90
27534;DHT22;14973;51.460;7.008;2023-06-22T12:10:57;21.50;99.90
27534;DHT22;14973;51.460;7.008;2023-06-22T12:13:22;21.50;99.90
27534;DHT22;14973;51.460;7.008;2023-06-22T12:15:48;21.50;99.90
27534;DHT22;14973;51.460;7.008;2023-06-22T12:18:13;21.50;99.90
27534;DHT22;14973;51.460;7.008;2023-06-22T12:20:40;21.40;99.90
27534;DHT22;14973;51.460;7.008;2023-06-22T12:23:05;21.50;99.90
27534;DHT22;14973;51.460;7.008;2023-06-22T12:25:31;21.40;99.90
27534;DHT22;14973;51.460;7.008;2023-06-22T12:27:56;21.30;99.90
27534;DHT22;14973;51.460;7.008;2023-06-22T12:30:22;21.30;99.90
27534;DHT22;14973;51.460;7.008;2023-06-22T12:32:47;21.30;99.90
27534;DHT22;14973;51.460;7.008;2023-06-22T12:35:13;21.30;99.90
27534;DHT22;14973;51.460;7.008;2023-06-22T12:37:40;21.30;99.90
27534;DHT22;14973;51.460;7.008;2023-06-22T12:40:06;21.30;99.90
27534;DHT22;14973;51.460;7.008;2023-06-22T12:42:31;21.30;99.90
27534;DHT22;14973;51.460;7.008;2023-06-22T12:44:57;21.30;99.90
27534;DHT22;14973;51.460;7.008;2023-06-22T12:47:22;21.30;99.90
27534;DHT22;14973;51.460;7.008;2023-06-22T12:49:48;21.30;99.90
27534;DHT22;14973;51.460;7.008;2023-06-22T12:52:13;21.30;99.90
27534;DHT22;14973;51.460;7.008;2023-06-22T12:54:38;21.40;99.90
27534;DHT22;14973;51.460;7.008;2023-06-22T12:57:04;21.30;99.90
27534;DHT22;14973;51.460;7.008;2023-06-22T12:59:30;21.30;99.90
27534;DHT22;14973;51.460;7.008;2023-06-22T13:01:55;21.30;99.90
27534;DHT22;14973;51.460;7.008;2023-06-22T13:04:21;21.40;99.90
27534;DHT22;14973;51.460;7.008;2023-06-22T13:06:46;21.30;99.90
27534;DHT22;14973;51.460;7.008;2023-06-22T13:09:15;21.30;99.90
27534;DHT22;14973;51.460;7.008;2023-06-22T13:11:41;21.30;99.90
27534;DHT22;14973;51.460;7.008;2023-06-22T13:14:07;21.30;99.90
27534;DHT22;14973;51.460;7.008;2023-06-22T13:16:32;21.40;99.90
27534;DHT22;14973;51.460;7.008;2023-06-22T13:18:58;21.50;99.90
27534;DHT22;14973;51.460;7.008;2023-06-22T13:21:23;21.70;99.90
27534;DHT22;14973;51.460;7.008;2023-06-22T13:23:49;21.80;99.90
27534;DHT22;14973;51.460;7.008;2023-06-22T13:26:14;21.70;99.90
27534;DHT22;14973;51.460;7.008;2023-06-22T13:28:40;21.70;99.90
27534;DHT22;14973;51.460;7.008;2023-06-22T13:31:05;21.70;99.90
27534;DHT22;14973;51.460;7.008;2023-06-22T13:33:30;21.60;99.90
27534;DHT22;14973;51.460;7.008;2023-06-22T13:35:56;21.50;99.90
27534;DHT22;14973;51.460;7.008;2023-06-22T13:38:21;21.50;99.90
27534;DHT22;14973;51.460;7.008;2023-06-22T13:40:48;21.50;99.90
27534;DHT22;14973;51.460;7.008;2023-06-22T13:43:13;21.60;99.90
27534;DHT22;14973;51.460;7.008;2023-06-22T13:45:39;21.70;99.90
27534;DHT22;14973;51.460;7.008;2023-06-22T13:48:04;21.80;99.90
27534;DHT22;14973;51.460;7.008;2023-06-22T13:50:30;21.70;99.90
27534;DHT22;14973;51.460;7.008;2023-06-22T13:52:55;21.90;99.90
27534;DHT22;14973;51.460;7.008;2023-06-22T13:55:21;21.90;99.90
27534;DHT22;14973;51.460;7.008;2023-06-22T13:57:47;22.00;99.90
27534;DHT22;14973;51.460;7.008;2023-06-22T14:00:12;22.00;99.90
27534;DHT22;14973;51.460;7.008;2023-06-22T14:02:38;21.90;99.90
27534;DHT22;14973;51.460;7.008;2023-06-22T14:05:05;22.00;99.90
27534;DHT22;14973;51.460;7.008;2023-06-22T14:07:31;22.00;99.90
27534;DHT22;14973;51.460;7.008;2023-06-22T14:09:57;22.10;99.90
27534;DHT22;14973;51.460;7.008;2023-06-22T14:12:23;22.10;99.90
27534;DHT22;14973;51.460;7.008;2023-06-22T14:14:48;22.20;99.90
27534;DHT22;14973;51.460;7.008;2023-06-22T14:17:14;22.10;99.90
27534;DHT22;14973;51.460;7.008;2023-06-22T14:19:39;22.00;99.90
27534;DHT22;14973;51.460;7.008;2023-06-22T14:22:05;22.00;99.90
27534;DHT22;14973;51.460;7.008;2023-06-22T14:24:30;22.10;99.90
27534;DHT22;14973;51.460;7.008;2023-06-22T14:26:56;22.20;99.90
27534;DHT22;14973;51.460;7.008;2023-06-22T14:29:21;22.10;99.90
27534;DHT22;14973;51.460;7.008;2023-06-22T14:31:47;22.20;99.90
27534;DHT22;14973;51.460;7.008;2023-06-22T14:34:13;22.20;99.90
27534;DHT22;14973;51.460;7.008;2023-06-22T14:36:38;22.20;99.90
27534;DHT22;14973;51.460;7.008;2023-06-22T14:39:04;22.20;99.90
27534;DHT22;14973;51.460;7.008;2023-06-22T14:41:30;22.10;99.90
27534;DHT22;14973;51.460;7.008;2023-06-22T14:43:55;22.20;99.90
27534;DHT22;14973;51.460;7.008;2023-06-22T14:46:21;22.20;99.90
27534;DHT22;14973;51.460;7.008;2023-06-22T14:48:46;22.20;99.90
27534;DHT22;14973;51.460;7.008;2023-06-22T14:51:12;22.20;99.90
27534;DHT22;14973;51.460;7.008;2023-06-22T14:53:38;22.30;99.90
27534;DHT22;14973;51.460;7.008;2023-06-22T14:56:03;22.40;99.90
27534;DHT22;14973;51.460;7.008;2023-06-22T14:58:31;22.50;99.90
27534;DHT22;14973;51.460;7.008;2023-06-22T15:01:01;22.50;99.90
27534;DHT22;14973;51.460;7.008;2023-06-22T15:03:26;22.40;99.90
27534;DHT22;14973;51.460;7.008;2023-06-22T15:05:54;22.30;99.90
27534;DHT22;14973;51.460;7.008;2023-06-22T15:08:20;22.30;99.90
27534;DHT22;14973;51.460;7.008;2023-06-22T15:10:45;22.20;99.90
27534;DHT22;14973;51.460;7.008;2023-06-22T15:13:10;22.20;99.90
27534;DHT22;14973;51.460;7.008;2023-06-22T15:15:36;22.10;99.90
27534;DHT22;14973;51.460;7.008;2023-06-22T15:18:02;22.20;99.90
27534;DHT22;14973;51.460;7.008;2023-06-22T15:20:27;22.20;99.90
27534;DHT22;14973;51.460;7.008;2023-06-22T15:22:52;22.10;99.90
27534;DHT22;14973;51.460;7.008;2023-06-22T15:25:18;22.00;99.90
27534;DHT22;14973;51.460;7.008;2023-06-22T15:27:43;21.90;99.90
27534;DHT22;14973;51.460;7.008;2023-06-22T15:30:09;21.80;99.90
27534;DHT22;14973;51.460;7.008;2023-06-22T15:32:34;21.80;99.90
27534;DHT22;14973;51.460;7.008;2023-06-22T15:35:00;21.70;99.90